Main page
METAR-TAF:

METAR-TAF

Airports :

Gage Airport

Gage, Oklahoma, United States

latitude: 36-17-48N, longitude: 099-46-08W, elevation: 2221 ft

Current weather observation

The report was made 1 hour and 14 minutes ago, at 11:53 UTC
Wind 12 mph from the South/Southwest
Temperature 37°F
Humidity 75%
Pressure 30.22 in. Hg
Visibility: 10 miles
Clear sky

METAR: KGAG 211153Z AUTO 20010KT 10SM CLR 03/M01 A3022 RMK AO2 SLP238 T00331011 10039 20006 56007

Time: 07:07 (13:07 UTC)


TAF: missing

Weather observations and forecasts of more than 4000 airports (METAR and TAF reports).

The available stations are represented by yellow and red dots on the map.

Hover mouse over dot to see the name of the station.

Then click to see weather observations and forecasts.

To change the map : click on the green buttons with a black cross to zoom in, on the green button with a dash to zoom out, or on the green arrows for adjacent maps.


METAR-TAF: